sensor_id;sensor_type;location;lat;lon;timestamp;pressure;altitude;pressure_sealevel;temperature;humidity
10668;BME280;5382;42.136;24.796;2023-02-19T00:01:06;100057.88;;;13.21;66.52
10668;BME280;5382;42.136;24.796;2023-02-19T00:03:33;100054.84;;;13.26;66.72
10668;BME280;5382;42.136;24.796;2023-02-19T00:06:01;100044.13;;;13.27;66.20
10668;BME280;5382;42.136;24.796;2023-02-19T00:08:29;100059.56;;;13.34;65.75
10668;BME280;5382;42.136;24.796;2023-02-19T00:11:00;100050.50;;;13.36;66.08
10668;BME280;5382;42.136;24.796;2023-02-19T00:13:26;100061.88;;;13.38;66.09
10668;BME280;5382;42.136;24.796;2023-02-19T00:15:53;100041.34;;;13.40;65.68
10668;BME280;5382;42.136;24.796;2023-02-19T00:18:22;100035.16;;;13.40;65.40
10668;BME280;5382;42.136;24.796;2023-02-19T00:20:49;100041.66;;;13.47;66.10
10668;BME280;5382;42.136;24.796;2023-02-19T00:23:15;100047.84;;;13.36;68.36
10668;BME280;5382;42.136;24.796;2023-02-19T00:25:42;100038.56;;;13.08;69.82
10668;BME280;5382;42.136;24.796;2023-02-19T00:28:09;100048.03;;;12.78;72.27
10668;BME280;5382;42.136;24.796;2023-02-19T00:30:36;100035.22;;;12.50;74.08
10668;BME280;5382;42.136;24.796;2023-02-19T00:33:02;100049.44;;;12.37;74.43
10668;BME280;5382;42.136;24.796;2023-02-19T00:35:32;100031.69;;;12.38;73.05
10668;BME280;5382;42.136;24.796;2023-02-19T00:37:59;100036.31;;;12.47;72.28
10668;BME280;5382;42.136;24.796;2023-02-19T00:40:26;100024.59;;;12.61;71.43
10668;BME280;5382;42.136;24.796;2023-02-19T00:42:52;100018.78;;;12.67;70.91
10668;BME280;5382;42.136;24.796;2023-02-19T00:45:19;100014.34;;;12.68;71.37
10668;BME280;5382;42.136;24.796;2023-02-19T00:47:46;100015.66;;;12.51;73.98
10668;BME280;5382;42.136;24.796;2023-02-19T00:50:13;100009.13;;;12.43;73.91
10668;BME280;5382;42.136;24.796;2023-02-19T00:52:41;100006.72;;;12.29;75.55
10668;BME280;5382;42.136;24.796;2023-02-19T00:55:08;100010.22;;;12.18;75.98
10668;BME280;5382;42.136;24.796;2023-02-19T00:57:35;100020.91;;;12.06;77.26
10668;BME280;5382;42.136;24.796;2023-02-19T01:00:01;100006.38;;;11.87;79.00
10668;BME280;5382;42.136;24.796;2023-02-19T01:02:28;100026.53;;;11.77;80.38
10668;BME280;5382;42.136;24.796;2023-02-19T01:04:55;100011.09;;;11.60;80.92
10668;BME280;5382;42.136;24.796;2023-02-19T01:07:22;100013.78;;;11.47;82.35
10668;BME280;5382;42.136;24.796;2023-02-19T01:09:50;100008.31;;;11.13;85.69
10668;BME280;5382;42.136;24.796;2023-02-19T01:12:17;100010.28;;;10.85;88.79
10668;BME280;5382;42.136;24.796;2023-02-19T01:14:44;99997.38;;;10.81;89.11
10668;BME280;5382;42.136;24.796;2023-02-19T01:17:10;99986.66;;;10.95;87.36
10668;BME280;5382;42.136;24.796;2023-02-19T01:19:37;99991.97;;;11.19;85.33
10668;BME280;5382;42.136;24.796;2023-02-19T01:22:04;99987.06;;;11.26;85.44
10668;BME280;5382;42.136;24.796;2023-02-19T01:24:31;99969.66;;;11.10;85.97
10668;BME280;5382;42.136;24.796;2023-02-19T01:26:59;99992.66;;;11.34;84.06
10668;BME280;5382;42.136;24.796;2023-02-19T01:29:26;99996.56;;;11.41;84.74
10668;BME280;5382;42.136;24.796;2023-02-19T01:31:53;99997.66;;;11.50;83.75
10668;BME280;5382;42.136;24.796;2023-02-19T01:34:19;100004.78;;;11.49;82.92
10668;BME280;5382;42.136;24.796;2023-02-19T01:36:46;100006.34;;;11.52;82.36
10668;BME280;5382;42.136;24.796;2023-02-19T01:39:13;100006.97;;;11.55;82.48
10668;BME280;5382;42.136;24.796;2023-02-19T01:41:41;100003.97;;;11.60;82.49
10668;BME280;5382;42.136;24.796;2023-02-19T01:47:09;99998.00;;;11.45;86.09
10668;BME280;5382;42.136;24.796;2023-02-19T01:49:37;99996.56;;;11.41;83.46
10668;BME280;5382;42.136;24.796;2023-02-19T01:52:11;99990.50;;;11.39;82.97
10668;BME280;5382;42.136;24.796;2023-02-19T01:54:41;99995.13;;;11.48;82.44
10668;BME280;5382;42.136;24.796;2023-02-19T01:57:13;99982.84;;;11.47;82.12
10668;BME280;5382;42.136;24.796;2023-02-19T01:59:42;99968.63;;;11.48;81.95
10668;BME280;5382;42.136;24.796;2023-02-19T02:02:11;99973.06;;;11.48;81.94
10668;BME280;5382;42.136;24.796;2023-02-19T02:04:37;99979.34;;;11.47;81.78
10668;BME280;5382;42.136;24.796;2023-02-19T02:07:05;99972.84;;;11.51;81.37
10668;BME280;5382;42.136;24.796;2023-02-19T02:09:52;99983.56;;;11.49;81.93
10668;BME280;5382;42.136;24.796;2023-02-19T02:12:37;99989.44;;;11.42;81.92
10668;BME280;5382;42.136;24.796;2023-02-19T02:15:04;99992.59;;;11.47;81.85
10668;BME280;5382;42.136;24.796;2023-02-19T02:17:38;99983.06;;;11.44;81.15
10668;BME280;5382;42.136;24.796;2023-02-19T02:20:21;99990.88;;;11.46;81.44
10668;BME280;5382;42.136;24.796;2023-02-19T02:22:58;99988.75;;;11.51;80.75
10668;BME280;5382;42.136;24.796;2023-02-19T02:25:58;99979.03;;;11.63;79.90
10668;BME280;5382;42.136;24.796;2023-02-19T02:28:59;100003.06;;;11.72;78.74
10668;BME280;5382;42.136;24.796;2023-02-19T02:31:38;99981.47;;;11.66;78.29
10668;BME280;5382;42.136;24.796;2023-02-19T02:34:11;100006.47;;;11.86;76.91
10668;BME280;5382;42.136;24.796;2023-02-19T02:36:42;100011.22;;;11.93;75.84
10668;BME280;5382;42.136;24.796;2023-02-19T02:39:12;100003.78;;;12.10;74.59
10668;BME280;5382;42.136;24.796;2023-02-19T02:41:41;99995.63;;;12.24;73.18
10668;BME280;5382;42.136;24.796;2023-02-19T02:44:09;100007.91;;;12.36;72.04
10668;BME280;5382;42.136;24.796;2023-02-19T02:46:40;99999.13;;;12.36;71.64
10668;BME280;5382;42.136;24.796;2023-02-19T02:49:11;100012.03;;;12.40;71.62
10668;BME280;5382;42.136;24.796;2023-02-19T02:51:45;100003.84;;;12.43;71.27
10668;BME280;5382;42.136;24.796;2023-02-19T02:54:14;99964.13;;;12.19;71.50
10668;BME280;5382;42.136;24.796;2023-02-19T02:56:59;99996.94;;;12.41;71.76
10668;BME280;5382;42.136;24.796;2023-02-19T02:59:30;100009.88;;;12.34;71.80
10668;BME280;5382;42.136;24.796;2023-02-19T03:02:01;100017.94;;;12.33;72.17
10668;BME280;5382;42.136;24.796;2023-02-19T03:04:42;100018.03;;;12.31;72.14
10668;BME280;5382;42.136;24.796;2023-02-19T03:07:26;100028.41;;;12.23;73.16
10668;BME280;5382;42.136;24.796;2023-02-19T03:09:55;100026.22;;;12.17;73.27
10668;BME280;5382;42.136;24.796;2023-02-19T03:12:25;100034.44;;;12.14;73.77
10668;BME280;5382;42.136;24.796;2023-02-19T03:15:13;100030.94;;;12.13;73.54
10668;BME280;5382;42.136;24.796;2023-02-19T03:18:02;100016.81;;;12.13;74.08
10668;BME280;5382;42.136;24.796;2023-02-19T03:20:50;100022.34;;;12.10;74.28
10668;BME280;5382;42.136;24.796;2023-02-19T03:23:19;100036.69;;;12.07;74.25
10668;BME280;5382;42.136;24.796;2023-02-19T03:26:09;100042.56;;;11.99;74.90
10668;BME280;5382;42.136;24.796;2023-02-19T03:28:38;100047.63;;;11.91;75.38
10668;BME280;5382;42.136;24.796;2023-02-19T03:31:26;100041.13;;;11.95;75.40
10668;BME280;5382;42.136;24.796;2023-02-19T03:34:00;100035.53;;;11.87;76.04
10668;BME280;5382;42.136;24.796;2023-02-19T03:36:34;100038.47;;;11.95;75.10
10668;BME280;5382;42.136;24.796;2023-02-19T03:39:03;100036.28;;;11.89;75.75
10668;BME280;5382;42.136;24.796;2023-02-19T03:41:35;100039.22;;;11.85;75.72
10668;BME280;5382;42.136;24.796;2023-02-19T03:44:08;100034.81;;;11.85;76.13
10668;BME280;5382;42.136;24.796;2023-02-19T03:46:43;100048.91;;;11.86;76.28
10668;BME280;5382;42.136;24.796;2023-02-19T03:49:17;100056.22;;;11.82;75.83
10668;BME280;5382;42.136;24.796;2023-02-19T03:51:57;100054.31;;;11.84;76.10
10668;BME280;5382;42.136;24.796;2023-02-19T03:54:33;100054.84;;;11.89;75.60
10668;BME280;5382;42.136;24.796;2023-02-19T03:57:07;100057.88;;;11.96;74.72
10668;BME280;5382;42.136;24.796;2023-02-19T03:59:41;100065.13;;;12.05;73.56
10668;BME280;5382;42.136;24.796;2023-02-19T04:02:12;100057.31;;;12.15;72.72
10668;BME280;5382;42.136;24.796;2023-02-19T04:04:44;100064.38;;;12.27;71.60
10668;BME280;5382;42.136;24.796;2023-02-19T04:07:14;100059.91;;;12.28;71.07
10668;BME280;5382;42.136;24.796;2023-02-19T04:09:44;100064.97;;;12.31;71.00
10668;BME280;5382;42.136;24.796;2023-02-19T04:12:13;100062.94;;;12.34;70.79
10668;BME280;5382;42.136;24.796;2023-02-19T04:14:44;100067.66;;;12.42;69.57
10668;BME280;5382;42.136;24.796;2023-02-19T04:17:17;100069.81;;;12.48;69.46
10668;BME280;5382;42.136;24.796;2023-02-19T04:19:49;100075.38;;;12.56;68.51
10668;BME280;5382;42.136;24.796;2023-02-19T04:22:16;100079.50;;;12.60;68.26
10668;BME280;5382;42.136;24.796;2023-02-19T04:24:47;100076.22;;;12.57;68.49
10668;BME280;5382;42.136;24.796;2023-02-19T04:27:15;100078.66;;;12.60;67.92
10668;BME280;5382;42.136;24.796;2023-02-19T04:29:42;100082.16;;;12.60;68.36
10668;BME280;5382;42.136;24.796;2023-02-19T04:32:10;100049.19;;;12.52;67.38
10668;BME280;5382;42.136;24.796;2023-02-19T04:34:37;100069.13;;;12.69;67.29
10668;BME280;5382;42.136;24.796;2023-02-19T04:37:05;100069.72;;;12.72;67.05
10668;BME280;5382;42.136;24.796;2023-02-19T04:39:32;100060.47;;;12.78;66.40
10668;BME280;5382;42.136;24.796;2023-02-19T04:41:59;100069.25;;;12.90;65.79
10668;BME280;5382;42.136;24.796;2023-02-19T04:44:26;100088.81;;;13.00;65.44
10668;BME280;5382;42.136;24.796;2023-02-19T04:46:53;100084.34;;;13.00;65.22
10668;BME280;5382;42.136;24.796;2023-02-19T04:49:20;100085.31;;;13.10;64.67
10668;BME280;5382;42.136;24.796;2023-02-19T04:51:46;100083.47;;;13.11;64.77
10668;BME280;5382;42.136;24.796;2023-02-19T04:54:15;100085.44;;;13.09;64.75
10668;BME280;5382;42.136;24.796;2023-02-19T04:56:41;100095.81;;;13.12;64.13
10668;BME280;5382;42.136;24.796;2023-02-19T04:59:08;100101.13;;;13.12;64.09
10668;BME280;5382;42.136;24.796;2023-02-19T05:01:36;100093.63;;;13.17;64.04
10668;BME280;5382;42.136;24.796;2023-02-19T05:04:03;100059.94;;;12.95;63.92
10668;BME280;5382;42.136;24.796;2023-02-19T05:06:30;100091.31;;;13.24;63.09
10668;BME280;5382;42.136;24.796;2023-02-19T05:08:56;100107.16;;;13.25;63.30
10668;BME280;5382;42.136;24.796;2023-02-19T05:11:25;100100.53;;;13.20;63.35
10668;BME280;5382;42.136;24.796;2023-02-19T05:13:53;100097.13;;;13.18;63.78
10668;BME280;5382;42.136;24.796;2023-02-19T05:16:20;100107.41;;;13.22;63.78
10668;BME280;5382;42.136;24.796;2023-02-19T05:18:47;100108.75;;;13.17;64.01
10668;BME280;5382;42.136;24.796;2023-02-19T05:21:14;100107.66;;;13.19;63.55
10668;BME280;5382;42.136;24.796;2023-02-19T05:23:41;100097.50;;;13.24;63.58
10668;BME280;5382;42.136;24.796;2023-02-19T05:26:11;100097.75;;;13.10;63.55
10668;BME280;5382;42.136;24.796;2023-02-19T05:28:41;100116.72;;;13.28;63.49
10668;BME280;5382;42.136;24.796;2023-02-19T05:31:08;100125.69;;;13.27;63.10
10668;BME280;5382;42.136;24.796;2023-02-19T05:33:34;100129.91;;;13.29;63.18
10668;BME280;5382;42.136;24.796;2023-02-19T05:36:05;100132.88;;;13.25;63.23
10668;BME280;5382;42.136;24.796;2023-02-19T05:38:32;100109.22;;;13.10;63.35
10668;BME280;5382;42.136;24.796;2023-02-19T05:41:06;100141.47;;;13.28;63.35
10668;BME280;5382;42.136;24.796;2023-02-19T05:43:33;100140.13;;;13.23;63.76
10668;BME280;5382;42.136;24.796;2023-02-19T05:46:01;100144.97;;;13.29;63.76
10668;BME280;5382;42.136;24.796;2023-02-19T05:48:28;100101.00;;;13.02;63.31
10668;BME280;5382;42.136;24.796;2023-02-19T05:51:00;100150.56;;;13.37;63.13
10668;BME280;5382;42.136;24.796;2023-02-19T05:53:27;100154.75;;;13.40;63.00
10668;BME280;5382;42.136;24.796;2023-02-19T05:55:54;100147.50;;;13.42;62.95
10668;BME280;5382;42.136;24.796;2023-02-19T05:58:21;100158.38;;;13.50;61.96
10668;BME280;5382;42.136;24.796;2023-02-19T06:00:48;100168.03;;;13.62;61.12
10668;BME280;5382;42.136;24.796;2023-02-19T06:03:16;100165.59;;;13.70;60.47
10668;BME280;5382;42.136;24.796;2023-02-19T06:05:43;100169.34;;;13.79;60.02
10668;BME280;5382;42.136;24.796;2023-02-19T06:08:11;100153.38;;;13.68;59.31
10668;BME280;5382;42.136;24.796;2023-02-19T06:10:38;100185.16;;;13.92;58.99
10668;BME280;5382;42.136;24.796;2023-02-19T06:13:06;100185.47;;;13.99;58.48
10668;BME280;5382;42.136;24.796;2023-02-19T06:15:33;100185.13;;;14.03;58.29
10668;BME280;5382;42.136;24.796;2023-02-19T06:18:00;100192.56;;;14.09;57.81
10668;BME280;5382;42.136;24.796;2023-02-19T06:20:28;100186.50;;;14.18;57.26
10668;BME280;5382;42.136;24.796;2023-02-19T06:22:55;100186.63;;;14.17;56.52
10668;BME280;5382;42.136;24.796;2023-02-19T06:25:22;100204.88;;;14.33;56.63
10668;BME280;5382;42.136;24.796;2023-02-19T06:27:49;100213.31;;;14.38;55.56
10668;BME280;5382;42.136;24.796;2023-02-19T06:30:16;100211.69;;;14.47;55.91
10668;BME280;5382;42.136;24.796;2023-02-19T06:32:43;100204.19;;;14.52;55.54
10668;BME280;5382;42.136;24.796;2023-02-19T06:35:10;100213.22;;;14.60;54.82
10668;BME280;5382;42.136;24.796;2023-02-19T06:37:38;100208.25;;;14.67;54.71
10668;BME280;5382;42.136;24.796;2023-02-19T06:40:05;100206.88;;;14.73;54.56
10668;BME280;5382;42.136;24.796;2023-02-19T06:42:32;100200.78;;;14.82;54.09
10668;BME280;5382;42.136;24.796;2023-02-19T06:44:59;100221.56;;;14.88;54.04
10668;BME280;5382;42.136;24.796;2023-02-19T06:47:29;100217.16;;;14.98;53.06
10668;BME280;5382;42.136;24.796;2023-02-19T06:49:56;100222.53;;;15.08;52.65
10668;BME280;5382;42.136;24.796;2023-02-19T06:52:23;100209.53;;;15.15;52.43
10668;BME280;5382;42.136;24.796;2023-02-19T06:54:52;100209.13;;;15.19;52.43
10668;BME280;5382;42.136;24.796;2023-02-19T06:57:18;100223.63;;;15.26;51.73
10668;BME280;5382;42.136;24.796;2023-02-19T06:59:45;100217.47;;;15.26;51.99
10668;BME280;5382;42.136;24.796;2023-02-19T07:02:12;100218.47;;;15.35;51.63
10668;BME280;5382;42.136;24.796;2023-02-19T07:04:39;100205.00;;;15.36;52.26
10668;BME280;5382;42.136;24.796;2023-02-19T07:07:09;100211.03;;;15.38;52.42
10668;BME280;5382;42.136;24.796;2023-02-19T07:09:36;100220.47;;;15.42;52.17
10668;BME280;5382;42.136;24.796;2023-02-19T07:12:05;100220.06;;;15.47;52.00
10668;BME280;5382;42.136;24.796;2023-02-19T07:14:32;100217.13;;;15.50;51.61
10668;BME280;5382;42.136;24.796;2023-02-19T07:16:58;100227.53;;;15.53;51.57
10668;BME280;5382;42.136;24.796;2023-02-19T07:19:25;100219.84;;;15.60;51.45
10668;BME280;5382;42.136;24.796;2023-02-19T07:21:52;100217.91;;;15.62;51.12
10668;BME280;5382;42.136;24.796;2023-02-19T07:24:18;100230.13;;;15.64;50.95
10668;BME280;5382;42.136;24.796;2023-02-19T07:26:45;100226.19;;;15.68;50.48
10668;BME280;5382;42.136;24.796;2023-02-19T07:29:14;100227.38;;;15.76;50.42
10668;BME280;5382;42.136;24.796;2023-02-19T07:31:41;100230.31;;;15.82;50.16
10668;BME280;5382;42.136;24.796;2023-02-19T07:34:08;100204.94;;;15.88;49.84
10668;BME280;5382;42.136;24.796;2023-02-19T07:36:35;100222.34;;;15.92;49.72
10668;BME280;5382;42.136;24.796;2023-02-19T07:39:02;100230.22;;;15.94;50.51
10668;BME280;5382;42.136;24.796;2023-02-19T07:41:29;100226.03;;;16.01;49.96
10668;BME280;5382;42.136;24.796;2023-02-19T07:43:56;100220.69;;;16.10;49.95
10668;BME280;5382;42.136;24.796;2023-02-19T07:46:25;100244.03;;;16.18;49.58
10668;BME280;5382;42.136;24.796;2023-02-19T07:48:52;100230.00;;;16.16;49.67
10668;BME280;5382;42.136;24.796;2023-02-19T07:51:19;100220.44;;;16.13;49.83
10668;BME280;5382;42.136;24.796;2023-02-19T07:53:46;100215.22;;;16.12;49.98
10668;BME280;5382;42.136;24.796;2023-02-19T07:56:14;100211.88;;;16.29;49.96
10668;BME280;5382;42.136;24.796;2023-02-19T07:58:41;100216.94;;;16.32;49.43
10668;BME280;5382;42.136;24.796;2023-02-19T08:01:09;100222.28;;;16.32;50.08
10668;BME280;5382;42.136;24.796;2023-02-19T08:03:40;100221.31;;;16.43;49.57
10668;BME280;5382;42.136;24.796;2023-02-19T08:06:07;100215.13;;;16.43;50.08
10668;BME280;5382;42.136;24.796;2023-02-19T08:08:35;100217.63;;;16.44;49.93
10668;BME280;5382;42.136;24.796;2023-02-19T08:11:03;100218.22;;;16.48;50.10
10668;BME280;5382;42.136;24.796;2023-02-19T08:13:48;100214.00;;;16.55;49.77
10668;BME280;5382;42.136;24.796;2023-02-19T08:16:16;100221.88;;;16.56;49.65
10668;BME280;5382;42.136;24.796;2023-02-19T08:18:46;100219.31;;;16.65;49.57
10668;BME280;5382;42.136;24.796;2023-02-19T08:21:13;100192.88;;;16.71;49.61
10668;BME280;5382;42.136;24.796;2023-02-19T08:23:42;100195.00;;;16.77;49.94
10668;BME280;5382;42.136;24.796;2023-02-19T08:26:11;100194.88;;;16.79;49.86
10668;BME280;5382;42.136;24.796;2023-02-19T08:28:38;100200.94;;;16.81;49.60
10668;BME280;5382;42.136;24.796;2023-02-19T08:31:07;100199.50;;;16.87;49.85
10668;BME280;5382;42.136;24.796;2023-02-19T08:33:34;100197.25;;;16.92;49.86
10668;BME280;5382;42.136;24.796;2023-02-19T08:36:04;100196.25;;;16.93;49.72
10668;BME280;5382;42.136;24.796;2023-02-19T08:38:33;100185.13;;;16.97;49.23
10668;BME280;5382;42.136;24.796;2023-02-19T08:41:03;100192.84;;;17.00;49.41
10668;BME280;5382;42.136;24.796;2023-02-19T08:43:30;100197.19;;;17.11;48.75
10668;BME280;5382;42.136;24.796;2023-02-19T08:45:57;100188.75;;;17.16;49.28
10668;BME280;5382;42.136;24.796;2023-02-19T08:48:23;100185.09;;;17.17;48.93
10668;BME280;5382;42.136;24.796;2023-02-19T08:50:54;100199.81;;;17.31;48.81
10668;BME280;5382;42.136;24.796;2023-02-19T08:53:23;100201.63;;;17.40;48.82
10668;BME280;5382;42.136;24.796;2023-02-19T08:55:50;100203.84;;;17.44;48.81
10668;BME280;5382;42.136;24.796;2023-02-19T08:58:17;100188.75;;;17.53;48.85
10668;BME280;5382;42.136;24.796;2023-02-19T09:00:44;100188.31;;;17.76;48.24
10668;BME280;5382;42.136;24.796;2023-02-19T09:03:11;100190.22;;;17.93;47.90
10668;BME280;5382;42.136;24.796;2023-02-19T09:05:37;100186.19;;;17.89;47.72
10668;BME280;5382;42.136;24.796;2023-02-19T09:08:04;100175.94;;;18.02;47.79
10668;BME280;5382;42.136;24.796;2023-02-19T09:10:32;100163.63;;;18.09;47.27
10668;BME280;5382;42.136;24.796;2023-02-19T09:12:59;100173.44;;;18.19;47.29
10668;BME280;5382;42.136;24.796;2023-02-19T09:15:27;100177.13;;;18.18;47.55
10668;BME280;5382;42.136;24.796;2023-02-19T09:17:54;100178.47;;;18.22;47.41
10668;BME280;5382;42.136;24.796;2023-02-19T09:20:21;100167.16;;;18.28;47.78
10668;BME280;5382;42.136;24.796;2023-02-19T09:22:48;100160.28;;;18.43;47.01
10668;BME280;5382;42.136;24.796;2023-02-19T09:25:15;100165.38;;;18.55;46.77
10668;BME280;5382;42.136;24.796;2023-02-19T09:27:43;100142.69;;;18.67;46.67
10668;BME280;5382;42.136;24.796;2023-02-19T09:30:10;100142.81;;;18.83;46.40
10668;BME280;5382;42.136;24.796;2023-02-19T09:32:36;100145.13;;;19.04;46.11
10668;BME280;5382;42.136;24.796;2023-02-19T09:35:04;100145.66;;;19.08;45.54
10668;BME280;5382;42.136;24.796;2023-02-19T09:37:31;100134.56;;;19.03;45.54
10668;BME280;5382;42.136;24.796;2023-02-19T09:39:57;100136.97;;;19.14;45.64
10668;BME280;5382;42.136;24.796;2023-02-19T09:42:26;100144.69;;;19.17;45.44
10668;BME280;5382;42.136;24.796;2023-02-19T09:44:57;100135.50;;;19.20;45.23
10668;BME280;5382;42.136;24.796;2023-02-19T09:47:26;100131.19;;;19.35;45.28
10668;BME280;5382;42.136;24.796;2023-02-19T09:49:55;100121.03;;;19.55;44.76
10668;BME280;5382;42.136;24.796;2023-02-19T09:52:29;100120.72;;;19.66;43.59
10668;BME280;5382;42.136;24.796;2023-02-19T09:55:00;100120.38;;;19.53;43.15
10668;BME280;5382;42.136;24.796;2023-02-19T09:57:29;100108.97;;;19.59;42.80
10668;BME280;5382;42.136;24.796;2023-02-19T10:00:03;100101.34;;;19.72;42.47
10668;BME280;5382;42.136;24.796;2023-02-19T10:02:31;100068.06;;;19.65;42.34
10668;BME280;5382;42.136;24.796;2023-02-19T10:04:58;100084.91;;;19.92;41.22
10668;BME280;5382;42.136;24.796;2023-02-19T10:07:32;100090.28;;;20.08;41.46
10668;BME280;5382;42.136;24.796;2023-02-19T10:10:09;100083.22;;;20.15;41.01
10668;BME280;5382;42.136;24.796;2023-02-19T10:12:46;100092.97;;;20.08;40.89
10668;BME280;5382;42.136;24.796;2023-02-19T10:15:19;100080.38;;;20.00;41.66
10668;BME280;5382;42.136;24.796;2023-02-19T10:17:49;100060.06;;;19.98;41.77
10668;BME280;5382;42.136;24.796;2023-02-19T10:20:18;100067.63;;;19.94;41.76
10668;BME280;5382;42.136;24.796;2023-02-19T10:22:47;100064.25;;;20.00;41.38
10668;BME280;5382;42.136;24.796;2023-02-19T10:25:15;100080.38;;;19.92;41.42
10668;BME280;5382;42.136;24.796;2023-02-19T10:27:42;100050.81;;;20.00;40.88
10668;BME280;5382;42.136;24.796;2023-02-19T10:30:18;100035.22;;;19.96;41.34
10668;BME280;5382;42.136;24.796;2023-02-19T10:32:59;100066.28;;;19.98;41.50
10668;BME280;5382;42.136;24.796;2023-02-19T10:35:26;100046.81;;;20.04;40.93
10668;BME280;5382;42.136;24.796;2023-02-19T10:37:53;100033.88;;;20.08;41.13
10668;BME280;5382;42.136;24.796;2023-02-19T10:40:24;100022.06;;;20.42;40.71
10668;BME280;5382;42.136;24.796;2023-02-19T10:42:53;100029.47;;;20.40;39.03
10668;BME280;5382;42.136;24.796;2023-02-19T10:45:24;100028.44;;;20.49;40.01
10668;BME280;5382;42.136;24.796;2023-02-19T10:47:54;100007.44;;;20.44;40.50
10668;BME280;5382;42.136;24.796;2023-02-19T10:50:26;100012.31;;;20.57;40.74
10668;BME280;5382;42.136;24.796;2023-02-19T10:52:56;99997.38;;;20.63;40.48
10668;BME280;5382;42.136;24.796;2023-02-19T10:55:26;99996.16;;;20.74;40.02
10668;BME280;5382;42.136;24.796;2023-02-19T10:57:54;99998.56;;;21.00;39.26
10668;BME280;5382;42.136;24.796;2023-02-19T11:00:24;99992.97;;;21.01;38.49
10668;BME280;5382;42.136;24.796;2023-02-19T11:03:18;99987.88;;;20.83;38.66
10668;BME280;5382;42.136;24.796;2023-02-19T11:05:58;99983.41;;;21.38;38.20
10668;BME280;5382;42.136;24.796;2023-02-19T11:08:26;99971.00;;;21.75;37.35
10668;BME280;5382;42.136;24.796;2023-02-19T11:10:52;99956.47;;;22.52;36.68
10668;BME280;5382;42.136;24.796;2023-02-19T11:13:25;99961.00;;;22.81;35.19
10668;BME280;5382;42.136;24.796;2023-02-19T11:15:57;99950.88;;;22.98;34.67
10668;BME280;5382;42.136;24.796;2023-02-19T11:18:27;99948.50;;;23.31;34.24
10668;BME280;5382;42.136;24.796;2023-02-19T11:20:55;99955.34;;;23.91;33.51
10668;BME280;5382;42.136;24.796;2023-02-19T11:23:25;99949.19;;;24.04;33.12
10668;BME280;5382;42.136;24.796;2023-02-19T11:25:55;99942.59;;;24.13;33.17
10668;BME280;5382;42.136;24.796;2023-02-19T11:28:33;99936.53;;;24.40;32.77
10668;BME280;5382;42.136;24.796;2023-02-19T11:31:24;99934.34;;;25.05;32.03
10668;BME280;5382;42.136;24.796;2023-02-19T11:33:56;99945.00;;;25.19;31.37
10668;BME280;5382;42.136;24.796;2023-02-19T11:36:31;99928.41;;;25.36;31.05
10668;BME280;5382;42.136;24.796;2023-02-19T11:39:06;99922.47;;;25.06;
10668;BME280;5382;42.136;24.796;2023-02-19T11:41:53;99921.88;;;25.17;30.60
10668;BME280;5382;42.136;24.796;2023-02-19T11:44:31;99933.03;;;24.87;30.47
10668;BME280;5382;42.136;24.796;2023-02-19T11:47:29;99910.78;;;24.92;30.93
10668;BME280;5382;42.136;24.796;2023-02-19T11:50:11;99908.81;;;25.47;30.32
10668;BME280;5382;42.136;24.796;2023-02-19T11:52:44;99912.56;;;25.33;30.62
10668;BME280;5382;42.136;24.796;2023-02-19T11:55:17;99902.78;;;25.58;30.25
10668;BME280;5382;42.136;24.796;2023-02-19T11:57:51;99899.44;;;25.56;30.15
10668;BME280;5382;42.136;24.796;2023-02-19T12:00:23;99886.28;;;26.06;29.45
10668;BME280;5382;42.136;24.796;2023-02-19T12:03:27;99889.16;;;26.31;29.26
10668;BME280;5382;42.136;24.796;2023-02-19T12:06:12;99888.09;;;26.39;29.05
10668;BME280;5382;42.136;24.796;2023-02-19T12:09:11;99880.03;;;27.09;28.31
10668;BME280;5382;42.136;24.796;2023-02-19T12:11:51;99878.53;;;27.20;27.95
10668;BME280;5382;42.136;24.796;2023-02-19T12:14:48;99869.50;;;28.01;27.34
10668;BME280;5382;42.136;24.796;2023-02-19T12:17:38;99865.41;;;28.29;26.87
10668;BME280;5382;42.136;24.796;2023-02-19T12:20:16;99863.94;;;28.82;26.79
10668;BME280;5382;42.136;24.796;2023-02-19T12:22:51;99857.19;;;28.54;26.53
10668;BME280;5382;42.136;24.796;2023-02-19T12:25:38;99846.50;;;28.71;26.20
10668;BME280;5382;42.136;24.796;2023-02-19T12:28:36;99841.97;;;29.49;25.71
10668;BME280;5382;42.136;24.796;2023-02-19T12:31:31;99837.97;;;29.98;25.07
10668;BME280;5382;42.136;24.796;2023-02-19T12:34:12;99825.13;;;30.63;24.49
10668;BME280;5382;42.136;24.796;2023-02-19T12:36:54;99821.59;;;31.25;24.02
10668;BME280;5382;42.136;24.796;2023-02-19T12:39:31;99822.03;;;31.89;23.66
10668;BME280;5382;42.136;24.796;2023-02-19T12:42:07;99817.91;;;32.48;23.29
10668;BME280;5382;42.136;24.796;2023-02-19T12:44:41;99812.72;;;32.78;22.47
10668;BME280;5382;42.136;24.796;2023-02-19T12:47:15;99805.38;;;33.43;22.38
10668;BME280;5382;42.136;24.796;2023-02-19T12:49:47;99798.19;;;34.33;22.00
10668;BME280;5382;42.136;24.796;2023-02-19T12:52:20;99798.94;;;34.13;21.47
10668;BME280;5382;42.136;24.796;2023-02-19T12:54:50;99794.31;;;34.18;21.85
10668;BME280;5382;42.136;24.796;2023-02-19T12:57:21;99784.59;;;34.79;21.53
10668;BME280;5382;42.136;24.796;2023-02-19T12:59:52;99780.19;;;35.29;21.24
10668;BME280;5382;42.136;24.796;2023-02-19T13:02:24;99776.91;;;35.42;21.32
10668;BME280;5382;42.136;24.796;2023-02-19T13:04:57;99769.38;;;34.50;21.11
10668;BME280;5382;42.136;24.796;2023-02-19T13:07:35;99766.19;;;35.25;20.99
10668;BME280;5382;42.136;24.796;2023-02-19T13:10:21;99767.28;;;34.99;20.12
10668;BME280;5382;42.136;24.796;2023-02-19T13:12:51;99759.75;;;33.75;20.62
10668;BME280;5382;42.136;24.796;2023-02-19T13:15:23;99740.69;;;34.05;20.80